Smit Orleans — CFN5087 — position and weather

sailwx.info

Track history (hours):
 
Tides and Currents Weather Stations Pressure Air Temp Water Temp Dewpoint Dewpoint Depression Visibility Wind Speed Wind Dir Waves Ship Positions

Smit Orleans

Last reported at 2015-Jan-28 00:33 UTC. Time now 2015-Jan-28 01:29 UTC.
Position N 49°17' W 123°04'.

Length 29 m; draft 5.1 m.

Type: . MMSI: 316012721.

Date/timePositionNaut miles runAvg speedWind from/ knotsBaromVisibWave heightAir tempDewpointWater temp
2015-Jan-28 00:33N 49°17' W 123°04'1 1.4
2015-Jan-27 23:33N 49°18' W 123°06'1 1.2
2015-Jan-27 22:33N 49°18' W 123°04'1 1.0
2015-Jan-27 21:33N 49°18' W 123°05'1 1.1
2015-Jan-27 20:33N 49°18' W 123°07'0 0.0
2015-Jan-27 19:33N 49°18' W 123°07'2 2.2
2015-Jan-27 18:33N 49°17' W 123°04'0 0.0
2015-Jan-27 17:33N 49°17' W 123°04'0 0.0
2015-Jan-27 16:33N 49°17' W 123°04'0 0.0
2015-Jan-27 15:33N 49°17' W 123°04'0 0.0
2015-Jan-27 14:33N 49°17' W 123°04'1 1.4
2015-Jan-27 13:33N 49°17' W 123°06'1 1.4
2015-Jan-27 12:33N 49°18' W 123°07'3 2.6
2015-Jan-27 11:33N 49°18' W 123°03'1 0.7
2015-Jan-27 10:33N 49°18' W 123°04'0 0.3
2015-Jan-27 09:33N 49°18' W 123°04'0 0.1
2015-Jan-27 08:33N 49°18' W 123°04'1 1.0
2015-Jan-27 07:33N 49°17' W 123°05'2 1.8
2015-Jan-27 06:33N 49°18' W 123°07'0 0.1
2015-Jan-27 05:34N 49°19' W 123°07'3 2.5
2015-Jan-27 04:33N 49°17' W 123°04'0 0.0
2015-Jan-27 03:33N 49°17' W 123°04'0 0.0
2015-Jan-27 02:33N 49°17' W 123°04'0 0.0
2015-Jan-27 01:33N 49°17' W 123°04'0 0.0
2015-Jan-27 00:33N 49°17' W 123°04'0 0.0
2015-Jan-26 23:33N 49°17' W 123°04'0 0.0
2015-Jan-26 22:33N 49°17' W 123°04'0 0.0
2015-Jan-26 21:33N 49°17' W 123°04'2 2.3
2015-Jan-26 20:33N 49°18' W 123°07'0 0.2
2015-Jan-26 19:33N 49°19' W 123°07'0 0.1
2015-Jan-26 18:33N 49°19' W 123°07'4 3.6
2015-Jan-26 17:33N 49°18' W 123°02'3 3.3
2015-Jan-26 16:33N 49°17' W 122°57'1 1.2
2015-Jan-26 15:33N 49°18' W 122°59'3 3.2
2015-Jan-26 14:33N 49°17' W 123°04'0 0.0
2015-Jan-26 13:33N 49°17' W 123°04'0 0.0
2015-Jan-26 12:33N 49°17' W 123°04'0 0.0
2015-Jan-26 11:33N 49°17' W 123°04'2 2.5
2015-Jan-26 10:34N 49°19' W 123°07'2 2.5
2015-Jan-26 09:33N 49°17' W 123°04'0 0.0
2015-Jan-26 08:33N 49°17' W 123°04'0 0.0
2015-Jan-26 07:33N 49°17' W 123°04'0 0.0
2015-Jan-26 06:33N 49°17' W 123°04'0 0.0
2015-Jan-26 05:33N 49°17' W 123°04'0 0.0
2015-Jan-26 04:33N 49°17' W 123°04'0 0.0
2015-Jan-26 03:33N 49°17' W 123°04'3 2.9
2015-Jan-26 02:33N 49°19' W 123°08'0 0.1
2015-Jan-26 01:34N 49°19' W 123°08'0 0.0
2015-Jan-26 00:33N 49°19' W 123°08'0 0.3
2015-Jan-25 23:33N 49°19' W 123°07'0 0.0
2015-Jan-25 22:33N 49°19' W 123°07'2 2.4
2015-Jan-25 21:33N 49°17' W 123°04'0 0.0
2015-Jan-25 20:33N 49°17' W 123°04'4 4.4
2015-Jan-25 19:34N 49°17' W 122°57'0 0.0
2015-Jan-25 18:33N 49°17' W 122°57'4 3.9
2015-Jan-25 17:33N 49°18' W 123°03'1 0.5
2015-Jan-25 16:33N 49°17' W 123°04'0 0.0
2015-Jan-25 15:33N 49°17' W 123°04'0 0.0
2015-Jan-25 14:33N 49°17' W 123°04'0 0.0
2015-Jan-25 13:33N 49°17' W 123°04'0 0.0
2015-Jan-25 12:33N 49°17' W 123°04'0 0.0
2015-Jan-25 11:33N 49°17' W 123°04'0 0.0
2015-Jan-25 10:33N 49°17' W 123°04'0 0.0
2015-Jan-25 09:33N 49°17' W 123°04'0 0.0
2015-Jan-25 08:33N 49°17' W 123°04'0 0.0
2015-Jan-25 07:33N 49°17' W 123°04'0 0.0
2015-Jan-25 06:33N 49°17' W 123°04'0 0.0
2015-Jan-25 05:33N 49°17' W 123°04'0 0.0
2015-Jan-25 04:33N 49°17' W 123°04'0 0.0
2015-Jan-25 03:33N 49°17' W 123°04'0 0.0
2015-Jan-25 02:33N 49°17' W 123°04'0 0.0
2015-Jan-25 01:33N 49°17' W 123°04'0 0.0
2015-Jan-25 00:33N 49°17' W 123°04'0 0.0
2015-Jan-24 23:33N 49°17' W 123°04'0 0.0
2015-Jan-24 22:33N 49°17' W 123°04'0 0.0
2015-Jan-24 21:33N 49°17' W 123°04'0 0.0
2015-Jan-24 20:33N 49°17' W 123°04'0 0.0
2015-Jan-24 19:33N 49°17' W 123°04'0 0.0
2015-Jan-24 18:33N 49°17' W 123°04'0 0.0
2015-Jan-24 17:33N 49°17' W 123°04'1 0.6
2015-Jan-24 16:33N 49°17' W 123°05'0 0.4
2015-Jan-24 15:33N 49°17' W 123°04'0 0.3
2015-Jan-24 14:33N 49°17' W 123°04'0 0.0
2015-Jan-24 13:33N 49°17' W 123°04'0 0.0
2015-Jan-24 12:33N 49°17' W 123°04'1 0.8
2015-Jan-24 11:33N 49°18' W 123°04'1 0.7
2015-Jan-24 10:34N 49°18' W 123°05'0 0.3
2015-Jan-24 09:34N 49°18' W 123°05'1 0.7
2015-Jan-24 08:33N 49°17' W 123°04'0 0.0
2015-Jan-24 07:33N 49°17' W 123°04'6 6.2
2015-Jan-24 06:33N 49°18' W 123°13'1110.9
2015-Jan-24 05:33N 49°08' W 123°19'1211.6
2015-Jan-24 04:33N 48°56' W 123°17'12 8.5
2015-Jan-24 03:11N 48°45' W 123°17'711.0
2015-Jan-24 02:33N 48°38' W 123°14'1312.6
2015-Jan-24 01:33N 48°25' W 123°10'1312.9
2015-Jan-24 00:33N 48°19' W 123°27'8 7.7
2015-Jan-23 23:34N 48°23' W 123°17'9 8.6
2015-Jan-23 22:33N 48°31' W 123°13'111.7
2015-Jan-23 22:27N 48°33' W 123°13'1011.3
2015-Jan-23 21:33N 48°43' W 123°14'912.4
2015-Jan-23 20:52N 48°46' W 123°02'3 8.7
2015-Jan-23 20:33N 48°49' W 123°01'1110.5
2015-Jan-23 19:33N 48°56' W 123°13'1110.7
2015-Jan-23 18:34N 49°06' W 123°20'1211.9
2015-Jan-23 17:33N 49°17' W 123°16'10 9.6
2015-Jan-23 16:34N 49°18' W 123°01'3 3.3
2015-Jan-23 15:34N 49°18' W 122°56'5 4.7
2015-Jan-23 14:33N 49°18' W 123°03'0 0.2
2015-Jan-23 13:34N 49°17' W 123°04'0 0.0
2015-Jan-23 12:33N 49°17' W 123°04'0 0.0
2015-Jan-23 11:33N 49°17' W 123°04'0 0.0
2015-Jan-23 10:33N 49°17' W 123°04'0 0.0
2015-Jan-23 09:33N 49°17' W 123°04'0 0.0
2015-Jan-23 08:33N 49°17' W 123°04'0 0.0
2015-Jan-23 07:33N 49°17' W 123°04'0 0.0
2015-Jan-23 06:33N 49°17' W 123°04'0 0.0
2015-Jan-23 05:33N 49°17' W 123°04'0 0.0
2015-Jan-23 04:33N 49°17' W 123°04'0 0.0
2015-Jan-23 03:33N 49°17' W 123°04'0 0.0
2015-Jan-23 02:33N 49°17' W 123°04'0 0.0
2015-Jan-23 01:33N 49°17' W 123°04'0 0.0
2015-Jan-23 00:33N 49°17' W 123°04'1 1.4
2015-Jan-22 23:33N 49°17' W 123°06'2 1.6
2015-Jan-22 22:33N 49°19' W 123°07'3 2.7
2015-Jan-22 21:33N 49°17' W 123°04'0 0.0
2015-Jan-22 20:33N 49°17' W 123°04'0 0.0
2015-Jan-22 19:33N 49°17' W 123°04'0 0.0
2015-Jan-22 18:33N 49°17' W 123°04'0 0.0
2015-Jan-22 17:33N 49°17' W 123°04'0 0.0
2015-Jan-22 16:33N 49°17' W 123°04'1 0.7
2015-Jan-22 15:34N 49°18' W 123°04'1 0.7
2015-Jan-22 14:33N 49°17' W 123°04'1 0.8
2015-Jan-22 13:50N 49°18' W 123°04'1 1.8
2015-Jan-22 13:34N 49°18' W 123°05'1 0.9
2015-Jan-22 12:33N 49°17' W 123°06'2 1.5
2015-Jan-22 11:33N 49°17' W 123°04'0 0.0
2015-Jan-22 10:33N 49°17' W 123°04'2 2.2
2015-Jan-22 09:33N 49°18' W 123°00'2 1.7
2015-Jan-22 08:33N 49°18' W 122°58'4 3.9
2015-Jan-22 07:33N 49°17' W 123°04'0 0.0
2015-Jan-22 06:33N 49°17' W 123°04'0 0.0
2015-Jan-22 05:33N 49°17' W 123°04'0 0.0
2015-Jan-22 04:33N 49°17' W 123°04'0 0.0
2015-Jan-22 03:33N 49°17' W 123°04'0 0.3
2015-Jan-22 02:33N 49°18' W 123°03'1 0.8
2015-Jan-22 01:34N 49°18' W 123°04'1 0.7
2015-Jan-22 00:33N 49°17' W 123°04'0 0.0
2015-Jan-21 23:33N 49°17' W 123°04'0 0.0
2015-Jan-21 22:50N 49°17' W 123°04'0 0.0
2015-Jan-21 22:46N 49°17' W 123°04'0 0.0
2015-Jan-21 22:33N 49°17' W 123°04'0 0.0
2015-Jan-21 22:25N 49°17' W 123°04'0 0.0
2015-Jan-21 21:33N 49°17' W 123°04'0 0.0
2015-Jan-21 20:34N 49°17' W 123°04'1 1.1
2015-Jan-21 19:33N 49°18' W 123°02'1 1.1
2015-Jan-21 18:33N 49°17' W 123°04'0 0.0
2015-Jan-21 17:33N 49°17' W 123°04'0 0.0
2015-Jan-21 16:33N 49°17' W 123°04'0 0.0
2015-Jan-21 15:33N 49°17' W 123°04'2 2.2
2015-Jan-21 14:33N 49°18' W 123°00'2 2.2
2015-Jan-21 13:34N 49°18' W 123°04'0 0.1
2015-Jan-21 12:34N 49°17' W 123°04'0 0.0
2015-Jan-21 11:34N 49°17' W 123°04'0 0.0
2015-Jan-21 10:34N 49°17' W 123°04'0 0.0
2015-Jan-21 09:34N 49°17' W 123°04'0 0.0
2015-Jan-21 08:33N 49°17' W 123°04'0 0.0
2015-Jan-21 07:34N 49°17' W 123°04'0 0.0
2015-Jan-21 06:34N 49°17' W 123°04'0 0.0
2015-Jan-21 05:34N 49°17' W 123°04'0 0.0
2015-Jan-21 04:34N 49°17' W 123°04'0 0.0
2015-Jan-21 03:34N 49°17' W 123°04'0 0.0
2015-Jan-21 02:33N 49°17' W 123°04'0 0.0
2015-Jan-21 01:34N 49°17' W 123°04'0 0.0
2015-Jan-21 00:47N 49°17' W 123°04'0 0.0
2015-Jan-21 00:34N 49°17' W 123°04'0 0.0
2015-Jan-20 23:34N 49°17' W 123°04'0 0.0
2015-Jan-20 21:25N 49°17' W 123°04'3 4.1
2015-Jan-20 20:41N 49°19' W 123°08'1 5.2
2015-Jan-20 20:33N 49°18' W 123°07'5 4.8
2015-Jan-20 19:33N 49°18' W 122°60'2 2.5
2015-Jan-20 18:33N 49°18' W 123°03'0 0.2
2015-Jan-20 17:33N 49°17' W 123°04'3 2.9
2015-Jan-20 16:40N 49°18' W 122°60'112.0
2015-Jan-20 16:33N 49°18' W 122°58'3 2.5
2015-Jan-20 15:33N 49°17' W 122°54'1 0.7
2015-Jan-20 14:34N 49°18' W 122°55'2 2.3
2015-Jan-20 13:33N 49°18' W 122°58'1 9.8
2015-Jan-20 13:30N 49°18' W 122°59'3 3.1
2015-Jan-20 12:33N 49°17' W 123°04'0 0.0
2015-Jan-20 11:33N 49°17' W 123°04'0 0.0
2015-Jan-20 10:34N 49°17' W 123°04'0 0.0
2015-Jan-20 09:33N 49°17' W 123°04'0 0.0
2015-Jan-20 08:33N 49°17' W 123°04'0 0.0
2015-Jan-20 07:33N 49°17' W 123°04'0 0.0
2015-Jan-20 06:33N 49°17' W 123°04'0 0.0
2015-Jan-20 05:33N 49°17' W 123°04'0 0.0
2015-Jan-20 04:33N 49°17' W 123°04'0 0.0
2015-Jan-20 03:33N 49°17' W 123°04'0 0.0
2015-Jan-20 02:33N 49°17' W 123°04'0 0.0
2015-Jan-20 01:33N 49°17' W 123°04'1 0.6
2015-Jan-20 00:34N 49°18' W 123°04'0 0.4
2015-Jan-19 23:33N 49°18' W 123°05'0 3.3
2015-Jan-19 23:25N 49°19' W 123°05'1 1.5
2015-Jan-19 22:33N 49°17' W 123°04'1 1.1
2015-Jan-19 21:33N 49°18' W 123°02'1 1.3
2015-Jan-19 20:33N 49°18' W 123°04'0 0.4
2015-Jan-19 19:33N 49°18' W 123°04'1 0.6
2015-Jan-19 18:33N 49°17' W 123°04'0 0.0
2015-Jan-19 17:33N 49°17' W 123°04'0 0.0
2015-Jan-19 16:38N 49°17' W 123°04'0 0.1
2015-Jan-19 16:33N 49°17' W 123°04'0 0.4
2015-Jan-19 16:33N 49°17' W 123°04'0 0.0
2015-Jan-19 15:33N 49°17' W 123°04'2 2.2
2015-Jan-19 14:33N 49°18' W 123°00'0 0.3
2015-Jan-19 13:33N 49°18' W 122°60'2 2.4
2015-Jan-19 12:33N 49°17' W 123°04'0 0.0
2015-Jan-19 11:33N 49°17' W 123°04'0 0.0
2015-Jan-19 10:33N 49°17' W 123°04'0 0.0
2015-Jan-19 09:33N 49°17' W 123°04'0 0.0
2015-Jan-19 08:33N 49°17' W 123°04'0 0.0
2015-Jan-19 07:33N 49°17' W 123°04'0 0.0
2015-Jan-19 06:33N 49°17' W 123°04'0 0.0
2015-Jan-19 06:20N 49°17' W 123°04'0 0.0
2015-Jan-19 05:33N 49°17' W 123°04'0 0.0
2015-Jan-19 05:00N 49°17' W 123°04'0 0.0
2015-Jan-19 04:33N 49°17' W 123°04'0 0.0
2015-Jan-19 04:00N 49°17' W 123°04'0 0.0
2015-Jan-19 03:33N 49°17' W 123°04'0 0.0
2015-Jan-19 02:33N 49°17' W 123°04'0 0.0
2015-Jan-19 01:33N 49°17' W 123°04'0 0.0
2015-Jan-19 01:14N 49°17' W 123°04'0 0.0
2015-Jan-19 00:33N 49°17' W 123°04'0 0.0
2015-Jan-18 23:33N 49°17' W 123°04'0 0.0
2015-Jan-18 22:33N 49°17' W 123°04'0 0.0
2015-Jan-18 21:33N 49°17' W 123°04'0 0.0
2015-Jan-18 20:33N 49°17' W 123°04'0 0.0
2015-Jan-18 19:34N 49°17' W 123°04'0 0.0
2015-Jan-18 18:33N 49°17' W 123°04'0 0.0
2015-Jan-18 17:33N 49°17' W 123°04'0 0.0
2015-Jan-18 16:33N 49°17' W 123°04'0 0.0
2015-Jan-18 15:33N 49°17' W 123°04'0 0.0
2015-Jan-18 14:33N 49°17' W 123°04'0 0.0
2015-Jan-18 13:33N 49°17' W 123°04'4 4.0
2015-Jan-18 12:33N 49°18' W 122°58'4 4.0
2015-Jan-18 11:33N 49°17' W 123°04'0 0.0
2015-Jan-18 10:33N 49°17' W 123°04'0 0.0
2015-Jan-18 09:34N 49°17' W 123°04'0 0.0
2015-Jan-18 08:34N 49°17' W 123°04'0 0.0
2015-Jan-18 07:33N 49°17' W 123°04'0 0.0
2015-Jan-18 06:33N 49°17' W 123°04'0 0.0
2015-Jan-18 05:33N 49°17' W 123°04'0 0.0
2015-Jan-18 04:33N 49°17' W 123°04'0 0.0
2015-Jan-18 03:34N 49°17' W 123°04'0 0.0
2015-Jan-18 02:33N 49°17' W 123°04'0 0.0
2015-Jan-18 01:33N 49°17' W 123°04'0 0.0
2015-Jan-18 00:34N 49°17' W 123°04'  
Track history (hours):
 
Tides and Currents Weather Stations Pressure Air Temp Water Temp Dewpoint Dewpoint Depression Visibility Wind Speed Wind Dir Waves Ship Positions

Smit Orleans

Last reported at 2015-Jan-28 00:33 UTC. Time now 2015-Jan-28 01:29 UTC.
Position N 49°17' W 123°04'.

Length 29 m; draft 5.1 m.

Type: . MMSI: 316012721.

Date/timePositionNaut miles runAvg speedWind from/ knotsBaromVisibWave heightAir tempDewpointWater temp
2015-Jan-28 00:33N 49°17' W 123°04'1 1.4
2015-Jan-27 23:33N 49°18' W 123°06'1 1.2
2015-Jan-27 22:33N 49°18' W 123°04'1 1.0
2015-Jan-27 21:33N 49°18' W 123°05'1 1.1
2015-Jan-27 20:33N 49°18' W 123°07'0 0.0
2015-Jan-27 19:33N 49°18' W 123°07'2 2.2
2015-Jan-27 18:33N 49°17' W 123°04'0 0.0
2015-Jan-27 17:33N 49°17' W 123°04'0 0.0
2015-Jan-27 16:33N 49°17' W 123°04'0 0.0
2015-Jan-27 15:33N 49°17' W 123°04'0 0.0
2015-Jan-27 14:33N 49°17' W 123°04'1 1.4
2015-Jan-27 13:33N 49°17' W 123°06'1 1.4
2015-Jan-27 12:33N 49°18' W 123°07'3 2.6
2015-Jan-27 11:33N 49°18' W 123°03'1 0.7
2015-Jan-27 10:33N 49°18' W 123°04'0 0.3
2015-Jan-27 09:33N 49°18' W 123°04'0 0.1
2015-Jan-27 08:33N 49°18' W 123°04'1 1.0
2015-Jan-27 07:33N 49°17' W 123°05'2 1.8
2015-Jan-27 06:33N 49°18' W 123°07'0 0.1
2015-Jan-27 05:34N 49°19' W 123°07'3 2.5
2015-Jan-27 04:33N 49°17' W 123°04'0 0.0
2015-Jan-27 03:33N 49°17' W 123°04'0 0.0
2015-Jan-27 02:33N 49°17' W 123°04'0 0.0
2015-Jan-27 01:33N 49°17' W 123°04'0 0.0
2015-Jan-27 00:33N 49°17' W 123°04'0 0.0
2015-Jan-26 23:33N 49°17' W 123°04'0 0.0
2015-Jan-26 22:33N 49°17' W 123°04'0 0.0
2015-Jan-26 21:33N 49°17' W 123°04'2 2.3
2015-Jan-26 20:33N 49°18' W 123°07'0 0.2
2015-Jan-26 19:33N 49°19' W 123°07'0 0.1
2015-Jan-26 18:33N 49°19' W 123°07'4 3.6
2015-Jan-26 17:33N 49°18' W 123°02'3 3.3
2015-Jan-26 16:33N 49°17' W 122°57'1 1.2
2015-Jan-26 15:33N 49°18' W 122°59'3 3.2
2015-Jan-26 14:33N 49°17' W 123°04'0 0.0
2015-Jan-26 13:33N 49°17' W 123°04'0 0.0
2015-Jan-26 12:33N 49°17' W 123°04'0 0.0
2015-Jan-26 11:33N 49°17' W 123°04'2 2.5
2015-Jan-26 10:34N 49°19' W 123°07'2 2.5
2015-Jan-26 09:33N 49°17' W 123°04'0 0.0
2015-Jan-26 08:33N 49°17' W 123°04'0 0.0
2015-Jan-26 07:33N 49°17' W 123°04'0 0.0
2015-Jan-26 06:33N 49°17' W 123°04'0 0.0
2015-Jan-26 05:33N 49°17' W 123°04'0 0.0
2015-Jan-26 04:33N 49°17' W 123°04'0 0.0
2015-Jan-26 03:33N 49°17' W 123°04'3 2.9
2015-Jan-26 02:33N 49°19' W 123°08'0 0.1
2015-Jan-26 01:34N 49°19' W 123°08'0 0.0
2015-Jan-26 00:33N 49°19' W 123°08'0 0.3
2015-Jan-25 23:33N 49°19' W 123°07'0 0.0
2015-Jan-25 22:33N 49°19' W 123°07'2 2.4
2015-Jan-25 21:33N 49°17' W 123°04'0 0.0
2015-Jan-25 20:33N 49°17' W 123°04'4 4.4
2015-Jan-25 19:34N 49°17' W 122°57'0 0.0
2015-Jan-25 18:33N 49°17' W 122°57'4 3.9
2015-Jan-25 17:33N 49°18' W 123°03'1 0.5
2015-Jan-25 16:33N 49°17' W 123°04'0 0.0
2015-Jan-25 15:33N 49°17' W 123°04'0 0.0
2015-Jan-25 14:33N 49°17' W 123°04'0 0.0
2015-Jan-25 13:33N 49°17' W 123°04'0 0.0
2015-Jan-25 12:33N 49°17' W 123°04'0 0.0
2015-Jan-25 11:33N 49°17' W 123°04'0 0.0
2015-Jan-25 10:33N 49°17' W 123°04'0 0.0
2015-Jan-25 09:33N 49°17' W 123°04'0 0.0
2015-Jan-25 08:33N 49°17' W 123°04'0 0.0
2015-Jan-25 07:33N 49°17' W 123°04'0 0.0
2015-Jan-25 06:33N 49°17' W 123°04'0 0.0
2015-Jan-25 05:33N 49°17' W 123°04'0 0.0
2015-Jan-25 04:33N 49°17' W 123°04'0 0.0
2015-Jan-25 03:33N 49°17' W 123°04'0 0.0
2015-Jan-25 02:33N 49°17' W 123°04'0 0.0
2015-Jan-25 01:33N 49°17' W 123°04'0 0.0
2015-Jan-25 00:33N 49°17' W 123°04'0 0.0
2015-Jan-24 23:33N 49°17' W 123°04'0 0.0
2015-Jan-24 22:33N 49°17' W 123°04'0 0.0
2015-Jan-24 21:33N 49°17' W 123°04'0 0.0
2015-Jan-24 20:33N 49°17' W 123°04'0 0.0
2015-Jan-24 19:33N 49°17' W 123°04'0 0.0
2015-Jan-24 18:33N 49°17' W 123°04'0 0.0
2015-Jan-24 17:33N 49°17' W 123°04'1 0.6
2015-Jan-24 16:33N 49°17' W 123°05'0 0.4
2015-Jan-24 15:33N 49°17' W 123°04'0 0.3
2015-Jan-24 14:33N 49°17' W 123°04'0 0.0
2015-Jan-24 13:33N 49°17' W 123°04'0 0.0
2015-Jan-24 12:33N 49°17' W 123°04'1 0.8
2015-Jan-24 11:33N 49°18' W 123°04'1 0.7
2015-Jan-24 10:34N 49°18' W 123°05'0 0.3
2015-Jan-24 09:34N 49°18' W 123°05'1 0.7
2015-Jan-24 08:33N 49°17' W 123°04'0 0.0
2015-Jan-24 07:33N 49°17' W 123°04'6 6.2
2015-Jan-24 06:33N 49°18' W 123°13'1110.9
2015-Jan-24 05:33N 49°08' W 123°19'1211.6
2015-Jan-24 04:33N 48°56' W 123°17'12 8.5
2015-Jan-24 03:11N 48°45' W 123°17'711.0
2015-Jan-24 02:33N 48°38' W 123°14'1312.6
2015-Jan-24 01:33N 48°25' W 123°10'1312.9
2015-Jan-24 00:33N 48°19' W 123°27'8 7.7
2015-Jan-23 23:34N 48°23' W 123°17'9 8.6
2015-Jan-23 22:33N 48°31' W 123°13'111.7
2015-Jan-23 22:27N 48°33' W 123°13'1011.3
2015-Jan-23 21:33N 48°43' W 123°14'912.4
2015-Jan-23 20:52N 48°46' W 123°02'3 8.7
2015-Jan-23 20:33N 48°49' W 123°01'1110.5
2015-Jan-23 19:33N 48°56' W 123°13'1110.7
2015-Jan-23 18:34N 49°06' W 123°20'1211.9
2015-Jan-23 17:33N 49°17' W 123°16'10 9.6
2015-Jan-23 16:34N 49°18' W 123°01'3 3.3
2015-Jan-23 15:34N 49°18' W 122°56'5 4.7
2015-Jan-23 14:33N 49°18' W 123°03'0 0.2
2015-Jan-23 13:34N 49°17' W 123°04'0 0.0
2015-Jan-23 12:33N 49°17' W 123°04'0 0.0
2015-Jan-23 11:33N 49°17' W 123°04'0 0.0
2015-Jan-23 10:33N 49°17' W 123°04'0 0.0
2015-Jan-23 09:33N 49°17' W 123°04'0 0.0
2015-Jan-23 08:33N 49°17' W 123°04'0 0.0
2015-Jan-23 07:33N 49°17' W 123°04'0 0.0
2015-Jan-23 06:33N 49°17' W 123°04'0 0.0
2015-Jan-23 05:33N 49°17' W 123°04'0 0.0
2015-Jan-23 04:33N 49°17' W 123°04'0 0.0
2015-Jan-23 03:33N 49°17' W 123°04'0 0.0
2015-Jan-23 02:33N 49°17' W 123°04'0 0.0
2015-Jan-23 01:33N 49°17' W 123°04'0 0.0
2015-Jan-23 00:33N 49°17' W 123°04'1 1.4
2015-Jan-22 23:33N 49°17' W 123°06'2 1.6
2015-Jan-22 22:33N 49°19' W 123°07'3 2.7
2015-Jan-22 21:33N 49°17' W 123°04'0 0.0
2015-Jan-22 20:33N 49°17' W 123°04'0 0.0
2015-Jan-22 19:33N 49°17' W 123°04'0 0.0
2015-Jan-22 18:33N 49°17' W 123°04'0 0.0
2015-Jan-22 17:33N 49°17' W 123°04'0 0.0
2015-Jan-22 16:33N 49°17' W 123°04'1 0.7
2015-Jan-22 15:34N 49°18' W 123°04'1 0.7
2015-Jan-22 14:33N 49°17' W 123°04'1 0.8
2015-Jan-22 13:50N 49°18' W 123°04'1 1.8
2015-Jan-22 13:34N 49°18' W 123°05'1 0.9
2015-Jan-22 12:33N 49°17' W 123°06'2 1.5
2015-Jan-22 11:33N 49°17' W 123°04'0 0.0
2015-Jan-22 10:33N 49°17' W 123°04'2 2.2
2015-Jan-22 09:33N 49°18' W 123°00'2 1.7
2015-Jan-22 08:33N 49°18' W 122°58'4 3.9
2015-Jan-22 07:33N 49°17' W 123°04'0 0.0
2015-Jan-22 06:33N 49°17' W 123°04'0 0.0
2015-Jan-22 05:33N 49°17' W 123°04'0 0.0
2015-Jan-22 04:33N 49°17' W 123°04'0 0.0
2015-Jan-22 03:33N 49°17' W 123°04'0 0.3
2015-Jan-22 02:33N 49°18' W 123°03'1 0.8
2015-Jan-22 01:34N 49°18' W 123°04'1 0.7
2015-Jan-22 00:33N 49°17' W 123°04'0 0.0
2015-Jan-21 23:33N 49°17' W 123°04'0 0.0
2015-Jan-21 22:50N 49°17' W 123°04'0 0.0
2015-Jan-21 22:46N 49°17' W 123°04'0 0.0
2015-Jan-21 22:33N 49°17' W 123°04'0 0.0
2015-Jan-21 22:25N 49°17' W 123°04'0 0.0
2015-Jan-21 21:33N 49°17' W 123°04'0 0.0
2015-Jan-21 20:34N 49°17' W 123°04'1 1.1
2015-Jan-21 19:33N 49°18' W 123°02'1 1.1
2015-Jan-21 18:33N 49°17' W 123°04'0 0.0
2015-Jan-21 17:33N 49°17' W 123°04'0 0.0
2015-Jan-21 16:33N 49°17' W 123°04'0 0.0
2015-Jan-21 15:33N 49°17' W 123°04'2 2.2
2015-Jan-21 14:33N 49°18' W 123°00'2 2.2
2015-Jan-21 13:34N 49°18' W 123°04'0 0.1
2015-Jan-21 12:34N 49°17' W 123°04'0 0.0
2015-Jan-21 11:34N 49°17' W 123°04'0 0.0
2015-Jan-21 10:34N 49°17' W 123°04'0 0.0
2015-Jan-21 09:34N 49°17' W 123°04'0 0.0
2015-Jan-21 08:33N 49°17' W 123°04'0 0.0
2015-Jan-21 07:34N 49°17' W 123°04'0 0.0
2015-Jan-21 06:34N 49°17' W 123°04'0 0.0
2015-Jan-21 05:34N 49°17' W 123°04'0 0.0
2015-Jan-21 04:34N 49°17' W 123°04'0 0.0
2015-Jan-21 03:34N 49°17' W 123°04'0 0.0
2015-Jan-21 02:33N 49°17' W 123°04'0 0.0
2015-Jan-21 01:34N 49°17' W 123°04'0 0.0
2015-Jan-21 00:47N 49°17' W 123°04'0 0.0
2015-Jan-21 00:34N 49°17' W 123°04'0 0.0
2015-Jan-20 23:34N 49°17' W 123°04'0 0.0
2015-Jan-20 21:25N 49°17' W 123°04'3 4.1
2015-Jan-20 20:41N 49°19' W 123°08'1 5.2
2015-Jan-20 20:33N 49°18' W 123°07'5 4.8
2015-Jan-20 19:33N 49°18' W 122°60'2 2.5
2015-Jan-20 18:33N 49°18' W 123°03'0 0.2
2015-Jan-20 17:33N 49°17' W 123°04'3 2.9
2015-Jan-20 16:40N 49°18' W 122°60'112.0
2015-Jan-20 16:33N 49°18' W 122°58'3 2.5
2015-Jan-20 15:33N 49°17' W 122°54'1 0.7
2015-Jan-20 14:34N 49°18' W 122°55'2 2.3
2015-Jan-20 13:33N 49°18' W 122°58'1 9.8
2015-Jan-20 13:30N 49°18' W 122°59'3 3.1
2015-Jan-20 12:33N 49°17' W 123°04'0 0.0
2015-Jan-20 11:33N 49°17' W 123°04'0 0.0
2015-Jan-20 10:34N 49°17' W 123°04'0 0.0
2015-Jan-20 09:33N 49°17' W 123°04'0 0.0
2015-Jan-20 08:33N 49°17' W 123°04'0 0.0
2015-Jan-20 07:33N 49°17' W 123°04'0 0.0
2015-Jan-20 06:33N 49°17' W 123°04'0 0.0
2015-Jan-20 05:33N 49°17' W 123°04'0 0.0
2015-Jan-20 04:33N 49°17' W 123°04'0 0.0
2015-Jan-20 03:33N 49°17' W 123°04'0 0.0
2015-Jan-20 02:33N 49°17' W 123°04'0 0.0
2015-Jan-20 01:33N 49°17' W 123°04'1 0.6
2015-Jan-20 00:34N 49°18' W 123°04'0 0.4
2015-Jan-19 23:33N 49°18' W 123°05'0 3.3
2015-Jan-19 23:25N 49°19' W 123°05'1 1.5
2015-Jan-19 22:33N 49°17' W 123°04'1 1.1
2015-Jan-19 21:33N 49°18' W 123°02'1 1.3
2015-Jan-19 20:33N 49°18' W 123°04'0 0.4
2015-Jan-19 19:33N 49°18' W 123°04'1 0.6
2015-Jan-19 18:33N 49°17' W 123°04'0 0.0
2015-Jan-19 17:33N 49°17' W 123°04'0 0.0
2015-Jan-19 16:38N 49°17' W 123°04'0 0.1
2015-Jan-19 16:33N 49°17' W 123°04'0 0.4
2015-Jan-19 16:33N 49°17' W 123°04'0 0.0
2015-Jan-19 15:33N 49°17' W 123°04'2 2.2
2015-Jan-19 14:33N 49°18' W 123°00'0 0.3
2015-Jan-19 13:33N 49°18' W 122°60'2 2.4
2015-Jan-19 12:33N 49°17' W 123°04'0 0.0
2015-Jan-19 11:33N 49°17' W 123°04'0 0.0
2015-Jan-19 10:33N 49°17' W 123°04'0 0.0
2015-Jan-19 09:33N 49°17' W 123°04'0 0.0
2015-Jan-19 08:33N 49°17' W 123°04'0 0.0
2015-Jan-19 07:33N 49°17' W 123°04'0 0.0
2015-Jan-19 06:33N 49°17' W 123°04'0 0.0
2015-Jan-19 06:20N 49°17' W 123°04'0 0.0
2015-Jan-19 05:33N 49°17' W 123°04'0 0.0
2015-Jan-19 05:00N 49°17' W 123°04'0 0.0
2015-Jan-19 04:33N 49°17' W 123°04'0 0.0
2015-Jan-19 04:00N 49°17' W 123°04'0 0.0
2015-Jan-19 03:33N 49°17' W 123°04'0 0.0
2015-Jan-19 02:33N 49°17' W 123°04'0 0.0
2015-Jan-19 01:33N 49°17' W 123°04'0 0.0
2015-Jan-19 01:14N 49°17' W 123°04'0 0.0
2015-Jan-19 00:33N 49°17' W 123°04'0 0.0
2015-Jan-18 23:33N 49°17' W 123°04'0 0.0
2015-Jan-18 22:33N 49°17' W 123°04'0 0.0
2015-Jan-18 21:33N 49°17' W 123°04'0 0.0
2015-Jan-18 20:33N 49°17' W 123°04'0 0.0
2015-Jan-18 19:34N 49°17' W 123°04'0 0.0
2015-Jan-18 18:33N 49°17' W 123°04'0 0.0
2015-Jan-18 17:33N 49°17' W 123°04'0 0.0
2015-Jan-18 16:33N 49°17' W 123°04'0 0.0
2015-Jan-18 15:33N 49°17' W 123°04'0 0.0
2015-Jan-18 14:33N 49°17' W 123°04'0 0.0
2015-Jan-18 13:33N 49°17' W 123°04'4 4.0
2015-Jan-18 12:33N 49°18' W 122°58'4 4.0
2015-Jan-18 11:33N 49°17' W 123°04'0 0.0
2015-Jan-18 10:33N 49°17' W 123°04'0 0.0
2015-Jan-18 09:34N 49°17' W 123°04'0 0.0
2015-Jan-18 08:34N 49°17' W 123°04'0 0.0
2015-Jan-18 07:33N 49°17' W 123°04'0 0.0
2015-Jan-18 06:33N 49°17' W 123°04'0 0.0
2015-Jan-18 05:33N 49°17' W 123°04'0 0.0
2015-Jan-18 04:33N 49°17' W 123°04'0 0.0
2015-Jan-18 03:34N 49°17' W 123°04'0 0.0
2015-Jan-18 02:33N 49°17' W 123°04'0 0.0
2015-Jan-18 01:33N 49°17' W 123°04'0 0.0
2015-Jan-18 00:34N 49°17' W 123°04'  

Dump ship's entire track history